createdAt,value
2024-01-15T00:00:18.355Z,64.85
2024-01-15T00:02:44.809Z,65.45
2024-01-15T00:05:11.212Z,65.61
2024-01-15T00:07:37.602Z,65.47
2024-01-15T00:10:04.092Z,65.33
2024-01-15T00:12:30.524Z,64.97
2024-01-15T00:14:56.915Z,64.91
2024-01-15T00:17:23.471Z,64.24
2024-01-15T00:19:50.031Z,64.00
2024-01-15T00:22:16.516Z,63.87
2024-01-15T00:24:42.995Z,63.97
2024-01-15T00:27:09.472Z,63.85
2024-01-15T00:29:35.888Z,64.02
2024-01-15T00:32:02.247Z,64.00
2024-01-15T00:34:28.731Z,63.68
2024-01-15T00:36:55.240Z,63.13
2024-01-15T00:39:21.719Z,62.99
2024-01-15T00:41:48.129Z,60.85
2024-01-15T00:44:14.503Z,60.68
2024-01-15T00:46:40.872Z,59.50
2024-01-15T00:49:07.347Z,60.60
2024-01-15T00:51:33.799Z,61.38
2024-01-15T00:54:00.213Z,62.17
2024-01-15T00:56:26.599Z,62.44
2024-01-15T00:58:53.012Z,62.46
2024-01-15T01:01:19.589Z,63.11
2024-01-15T01:03:46.207Z,63.05
2024-01-15T01:06:12.643Z,63.20
2024-01-15T01:08:39.050Z,63.11
2024-01-15T01:11:05.432Z,62.83
2024-01-15T01:13:31.809Z,62.04
2024-01-15T01:15:58.343Z,62.84
2024-01-15T01:18:24.965Z,62.39
2024-01-15T01:20:51.419Z,62.35
2024-01-15T01:23:17.783Z,63.29
2024-01-15T01:25:44.213Z,63.28
2024-01-15T01:28:10.606Z,62.98
2024-01-15T01:30:37.116Z,62.19
2024-01-15T01:33:03.686Z,63.06
2024-01-15T01:35:30.154Z,63.76
2024-01-15T01:37:56.522Z,63.58
2024-01-15T01:40:22.913Z,64.04
2024-01-15T01:42:49.365Z,64.51
2024-01-15T01:45:15.847Z,64.40
2024-01-15T01:47:42.276Z,63.97
2024-01-15T01:50:08.657Z,63.82
2024-01-15T01:52:35.038Z,63.27
2024-01-15T01:55:01.415Z,63.31
2024-01-15T01:57:27.843Z,63.82
2024-01-15T01:59:54.233Z,63.79
2024-01-15T02:02:20.601Z,64.00
2024-01-15T02:04:46.996Z,64.23
2024-01-15T02:07:13.462Z,64.18
2024-01-15T02:09:39.908Z,64.21
2024-01-15T02:12:06.352Z,64.15
2024-01-15T02:14:32.754Z,64.28
2024-01-15T02:16:59.157Z,64.34
2024-01-15T02:19:25.624Z,63.72
2024-01-15T02:21:52.143Z,63.65
2024-01-15T02:24:18.624Z,63.58
2024-01-15T02:26:45.034Z,63.35
2024-01-15T02:29:11.480Z,63.49
2024-01-15T02:31:38.221Z,62.82
2024-01-15T02:34:05.110Z,62.79
2024-01-15T02:36:31.650Z,62.76
2024-01-15T02:38:58.064Z,63.18
2024-01-15T02:41:24.462Z,63.63
2024-01-15T02:43:50.858Z,63.66
2024-01-15T02:46:17.232Z,63.94
2024-01-15T02:48:43.776Z,63.73
2024-01-15T02:51:10.281Z,64.24
2024-01-15T02:53:36.656Z,63.92
2024-01-15T02:56:03.036Z,64.17
2024-01-15T02:58:29.409Z,64.18
2024-01-15T03:00:55.870Z,64.47
2024-01-15T03:03:22.409Z,64.55
2024-01-15T03:05:48.996Z,64.59
2024-01-15T03:08:15.368Z,65.24
2024-01-15T03:10:41.749Z,64.92
2024-01-15T03:13:08.152Z,64.92
2024-01-15T03:15:34.615Z,64.71
2024-01-15T03:18:01.085Z,64.72
2024-01-15T03:20:27.485Z,64.70
2024-01-15T03:22:53.869Z,64.35
2024-01-15T03:25:20.288Z,64.30
2024-01-15T03:27:46.778Z,64.30
2024-01-15T03:30:13.295Z,64.29
2024-01-15T03:32:39.734Z,64.70
2024-01-15T03:35:06.167Z,64.84
2024-01-15T03:37:32.757Z,64.85
2024-01-15T03:39:59.232Z,65.01
2024-01-15T03:42:25.729Z,65.06
2024-01-15T03:44:52.155Z,64.79
2024-01-15T03:47:18.534Z,64.73
2024-01-15T03:49:45.027Z,65.72
2024-01-15T03:52:11.447Z,65.39
2024-01-15T03:54:37.883Z,65.39
2024-01-15T03:57:04.290Z,65.33
2024-01-15T03:59:30.713Z,65.24
2024-01-15T04:01:57.124Z,65.65
2024-01-15T04:04:23.721Z,65.45
2024-01-15T04:06:50.259Z,65.10
2024-01-15T04:09:16.751Z,65.21
2024-01-15T04:11:43.141Z,65.26
2024-01-15T04:14:09.538Z,65.00
2024-01-15T04:16:35.940Z,64.84
2024-01-15T04:19:02.498Z,65.26
2024-01-15T04:21:29.075Z,65.21
2024-01-15T04:23:55.445Z,65.75
2024-01-15T04:26:21.832Z,65.55
2024-01-15T04:28:48.214Z,65.62
2024-01-15T04:31:14.652Z,65.34
2024-01-15T04:33:41.218Z,65.47
2024-01-15T04:36:07.680Z,65.25
2024-01-15T04:38:34.196Z,64.88
2024-01-15T04:41:00.577Z,64.51
2024-01-15T04:43:26.965Z,64.13
2024-01-15T04:45:53.394Z,64.41
2024-01-15T04:48:20.057Z,64.06
2024-01-15T04:50:46.448Z,64.44
2024-01-15T04:53:13.678Z,64.53
2024-01-15T04:55:40.184Z,64.37
2024-01-15T04:58:06.555Z,64.24
2024-01-15T05:00:33.078Z,63.90
2024-01-15T05:02:59.580Z,63.80
2024-01-15T05:05:25.995Z,63.46
2024-01-15T05:07:52.387Z,63.29
2024-01-15T05:10:18.779Z,63.12
2024-01-15T05:12:45.256Z,63.90
2024-01-15T05:15:11.729Z,63.08
2024-01-15T05:17:38.188Z,63.51
2024-01-15T05:20:04.769Z,63.62
2024-01-15T05:22:31.287Z,63.24
2024-01-15T05:24:57.729Z,63.25
2024-01-15T05:27:24.172Z,63.14
2024-01-15T05:29:50.568Z,62.97
2024-01-15T05:32:17.054Z,63.02
2024-01-15T05:34:43.530Z,63.05
2024-01-15T05:37:09.968Z,62.99
2024-01-15T05:39:36.388Z,61.19
2024-01-15T05:42:02.767Z,61.50
2024-01-15T05:44:29.153Z,61.27
2024-01-15T05:46:55.560Z,62.35
2024-01-15T05:49:22.029Z,61.68
2024-01-15T05:51:48.524Z,62.15
2024-01-15T05:54:14.923Z,61.87
2024-01-15T05:56:41.328Z,62.67
2024-01-15T05:59:07.714Z,62.29
2024-01-15T06:01:34.183Z,62.46
2024-01-15T06:04:00.733Z,62.01
2024-01-15T06:06:27.229Z,61.84
2024-01-15T06:08:53.711Z,61.01
2024-01-15T06:11:20.076Z,61.24
2024-01-15T06:13:46.465Z,60.57
2024-01-15T06:16:13.440Z,59.95
2024-01-15T06:18:40.036Z,59.69
2024-01-15T06:21:06.484Z,60.29
2024-01-15T06:23:32.864Z,60.25
2024-01-15T06:25:59.248Z,60.33
2024-01-15T06:28:25.705Z,61.09
2024-01-15T06:30:52.178Z,60.71
2024-01-15T06:33:18.765Z,61.87
2024-01-15T06:35:45.207Z,61.99
2024-01-15T06:38:11.579Z,61.60
2024-01-15T06:40:37.944Z,60.79
2024-01-15T06:43:04.327Z,61.25
2024-01-15T06:45:30.757Z,61.47
2024-01-15T06:47:57.214Z,64.86
2024-01-15T06:50:23.672Z,61.67
2024-01-15T06:52:50.072Z,61.05
2024-01-15T06:55:16.469Z,60.94
2024-01-15T06:57:42.869Z,60.70
2024-01-15T07:00:09.456Z,60.39
2024-01-15T07:02:35.930Z,60.74
2024-01-15T07:05:02.399Z,61.57
2024-01-15T07:07:28.814Z,61.48
2024-01-15T07:09:55.230Z,61.63
2024-01-15T07:12:21.650Z,61.58
2024-01-15T07:14:48.056Z,61.82
2024-01-15T07:17:14.457Z,62.26
2024-01-15T07:19:40.960Z,62.00
2024-01-15T07:22:07.474Z,62.49
2024-01-15T07:24:33.946Z,62.70
2024-01-15T07:27:00.332Z,62.21
2024-01-15T07:29:26.717Z,61.99
2024-01-15T07:31:53.295Z,61.38
2024-01-15T07:34:19.908Z,61.70
2024-01-15T07:36:46.538Z,62.22
2024-01-15T07:39:12.991Z,62.11
2024-01-15T07:41:39.396Z,62.29
2024-01-15T07:44:05.784Z,62.08
2024-01-15T07:46:32.147Z,62.46
2024-01-15T07:48:58.595Z,61.83
2024-01-15T07:51:25.039Z,60.82
2024-01-15T07:53:51.429Z,61.11
2024-01-15T07:56:17.806Z,61.03
2024-01-15T07:58:44.215Z,60.61
2024-01-15T08:01:10.814Z,61.46
2024-01-15T08:03:37.384Z,61.54
2024-01-15T08:06:03.839Z,62.09
2024-01-15T08:08:30.290Z,62.47
2024-01-15T08:10:56.684Z,62.62
2024-01-15T08:13:23.094Z,62.51
2024-01-15T08:15:49.496Z,62.31
2024-01-15T08:18:16.083Z,62.57
2024-01-15T08:20:42.607Z,62.14
2024-01-15T08:23:09.027Z,62.40
2024-01-15T08:25:35.460Z,62.14
2024-01-15T08:28:01.820Z,62.33
2024-01-15T08:30:28.309Z,62.52
2024-01-15T08:35:21.359Z,62.58
2024-01-15T08:37:47.762Z,62.76
2024-01-15T08:40:14.149Z,62.73
2024-01-15T08:42:40.581Z,62.78
2024-01-15T08:45:06.995Z,62.58
2024-01-15T08:47:33.407Z,62.33
2024-01-15T08:49:59.781Z,62.20
2024-01-15T08:52:26.152Z,61.83
2024-01-15T08:54:52.595Z,61.08
2024-01-15T08:57:19.113Z,60.32
2024-01-15T08:59:45.545Z,60.39
2024-01-15T09:02:11.970Z,60.09
2024-01-15T09:04:38.410Z,60.42
2024-01-15T09:07:04.845Z,60.39
2024-01-15T09:09:31.239Z,60.20
2024-01-15T09:11:57.615Z,60.18
2024-01-15T09:14:33.148Z,59.45
2024-01-15T09:17:03.358Z,59.87
2024-01-15T09:19:29.906Z,59.47
2024-01-15T09:21:56.400Z,59.68
2024-01-15T09:24:27.695Z,59.97
2024-01-15T09:26:55.237Z,58.02
2024-01-15T09:29:21.612Z,58.60
2024-01-15T09:31:48.062Z,59.24
2024-01-15T09:34:14.524Z,58.20
2024-01-15T09:36:40.961Z,57.53
2024-01-15T09:39:07.341Z,58.04
2024-01-15T09:41:33.721Z,58.20
2024-01-15T09:44:00.145Z,58.92
2024-01-15T09:46:27.623Z,59.11
2024-01-15T09:48:54.157Z,59.11
2024-01-15T09:51:20.614Z,58.97
2024-01-15T09:53:47.000Z,59.21
2024-01-15T09:56:13.550Z,59.77
2024-01-15T09:58:39.963Z,60.18
2024-01-15T10:01:08.617Z,60.85
2024-01-15T10:03:35.429Z,61.48
2024-01-15T10:06:01.934Z,61.63
2024-01-15T10:08:28.375Z,62.08
2024-01-15T10:10:54.737Z,62.01
2024-01-15T10:13:21.122Z,61.92
2024-01-15T10:15:47.534Z,61.63
2024-01-15T10:18:14.038Z,61.48
2024-01-15T10:20:40.486Z,61.56
2024-01-15T10:23:06.885Z,61.39
2024-01-15T10:25:33.252Z,61.07
2024-01-15T10:27:59.860Z,61.40
2024-01-15T10:30:26.418Z,60.92
2024-01-15T10:32:52.873Z,60.74
2024-01-15T10:35:19.250Z,61.21
2024-01-15T10:37:45.654Z,61.82
2024-01-15T10:40:12.025Z,61.67
2024-01-15T10:42:38.454Z,60.24
2024-01-15T10:45:05.080Z,59.74
2024-01-15T10:47:31.491Z,60.66
2024-01-15T10:49:58.024Z,60.44
2024-01-15T10:52:24.502Z,59.72
2024-01-15T10:54:50.906Z,59.14
2024-01-15T10:57:17.359Z,58.96
2024-01-15T10:59:43.753Z,58.93
2024-01-15T11:02:10.169Z,57.98
2024-01-15T11:04:36.746Z,58.23
2024-01-15T11:07:03.328Z,57.77
2024-01-15T11:09:29.819Z,57.71
2024-01-15T11:11:56.226Z,57.65
2024-01-15T11:14:22.612Z,57.11
2024-01-15T11:16:49.004Z,56.75
2024-01-15T11:19:15.574Z,57.22
2024-01-15T11:21:42.102Z,56.65
2024-01-15T11:24:08.500Z,56.47
2024-01-15T11:26:34.883Z,55.37
2024-01-15T11:29:01.427Z,55.31
2024-01-15T11:31:27.958Z,55.49
2024-01-15T11:33:54.565Z,55.11
2024-01-15T11:36:21.034Z,55.67
2024-01-15T11:38:47.437Z,55.81
2024-01-15T11:41:13.830Z,56.36
2024-01-15T11:43:40.200Z,56.81
2024-01-15T11:46:06.638Z,57.88
2024-01-15T11:48:33.216Z,57.97
2024-01-15T11:50:59.625Z,58.48
2024-01-15T11:53:25.990Z,58.35
2024-01-15T11:55:52.386Z,58.58
2024-01-15T11:58:18.776Z,57.93
2024-01-15T12:00:45.339Z,58.44
2024-01-15T12:03:11.874Z,57.97
2024-01-15T12:05:38.334Z,58.99
2024-01-15T12:08:04.729Z,59.76
2024-01-15T12:10:31.103Z,61.02
2024-01-15T12:12:57.588Z,58.39
2024-01-15T12:15:24.015Z,59.71
2024-01-15T12:17:50.455Z,59.84
2024-01-15T12:20:16.903Z,59.63
2024-01-15T12:22:53.531Z,60.55
2024-01-15T12:25:27.074Z,60.16
2024-01-15T12:27:53.503Z,55.44
2024-01-15T12:30:20.066Z,55.53
2024-01-15T12:32:46.522Z,54.95
2024-01-15T12:35:12.944Z,54.55
2024-01-15T12:37:39.361Z,55.16
2024-01-15T12:40:05.806Z,56.07
2024-01-15T12:42:32.186Z,60.08
2024-01-15T12:44:58.730Z,60.33
2024-01-15T12:47:25.130Z,59.07
2024-01-15T12:49:51.525Z,55.26
2024-01-15T12:52:17.891Z,52.35
2024-01-15T12:54:44.275Z,52.45
2024-01-15T12:57:10.694Z,51.75
2024-01-15T12:59:37.056Z,53.30
2024-01-15T13:02:03.412Z,52.44
2024-01-15T13:04:29.927Z,52.96
2024-01-15T13:06:56.435Z,53.02
2024-01-15T13:09:22.885Z,53.76
2024-01-15T13:11:49.276Z,53.24
2024-01-15T13:14:15.655Z,53.12
2024-01-15T13:16:42.133Z,53.41
2024-01-15T13:19:08.597Z,53.43
2024-01-15T13:21:35.071Z,53.19
2024-01-15T13:24:01.500Z,53.03
2024-01-15T13:26:27.875Z,54.28
2024-01-15T13:28:54.249Z,54.26
2024-01-15T13:31:20.697Z,54.49
2024-01-15T13:33:47.234Z,54.08
2024-01-15T13:36:13.690Z,55.00
2024-01-15T13:38:40.133Z,54.86
2024-01-15T13:41:06.537Z,54.64
2024-01-15T13:43:32.913Z,54.47
2024-01-15T13:45:59.293Z,54.36
2024-01-15T13:48:25.761Z,54.74
2024-01-15T13:50:52.259Z,55.00
2024-01-15T13:53:18.634Z,54.73
2024-01-15T13:55:44.999Z,55.00
2024-01-15T13:58:11.364Z,54.90
2024-01-15T14:00:37.808Z,55.72
2024-01-15T14:03:04.301Z,54.55
2024-01-15T14:05:30.714Z,54.88
2024-01-15T14:07:57.118Z,55.01
2024-01-15T14:10:23.497Z,55.13
2024-01-15T14:12:49.947Z,55.55
2024-01-15T14:15:16.461Z,55.51
2024-01-15T14:17:42.996Z,54.16
2024-01-15T14:20:09.477Z,54.62
2024-01-15T14:22:35.908Z,54.42
2024-01-15T14:25:02.352Z,54.47
2024-01-15T14:27:28.800Z,54.34
2024-01-15T14:29:55.196Z,54.51
2024-01-15T14:32:21.563Z,54.36
2024-01-15T14:34:48.030Z,53.82
2024-01-15T14:37:14.463Z,54.52
2024-01-15T14:39:40.897Z,53.27
2024-01-15T14:42:07.326Z,52.52
2024-01-15T14:44:33.710Z,51.13
2024-01-15T14:47:00.107Z,50.91
2024-01-15T14:49:26.518Z,52.17
2024-01-15T14:51:52.976Z,51.70
2024-01-15T14:54:21.174Z,51.46
2024-01-15T14:56:48.727Z,50.83
2024-01-15T14:59:15.158Z,50.24
2024-01-15T15:01:41.617Z,50.26
2024-01-15T15:04:08.158Z,50.19
2024-01-15T15:06:34.704Z,50.36
2024-01-15T15:09:01.187Z,49.72
2024-01-15T15:11:27.583Z,50.73
2024-01-15T15:13:53.973Z,50.36
2024-01-15T15:16:20.558Z,49.27
2024-01-15T15:18:47.097Z,48.89
2024-01-15T15:21:13.729Z,48.83
2024-01-15T15:23:40.176Z,49.44
2024-01-15T15:26:06.549Z,49.35
2024-01-15T15:28:32.914Z,50.37
2024-01-15T15:30:59.470Z,49.21
2024-01-15T15:33:26.254Z,48.69
2024-01-15T15:35:52.834Z,48.39
2024-01-15T15:38:19.277Z,47.30
2024-01-15T15:40:45.718Z,47.56
2024-01-15T15:43:12.098Z,46.87
2024-01-15T15:45:38.481Z,46.23
2024-01-15T15:48:04.954Z,45.65
2024-01-15T15:50:34.385Z,44.90
2024-01-15T15:53:01.449Z,44.55
2024-01-15T15:55:27.840Z,45.60
2024-01-15T15:57:54.291Z,45.76
2024-01-15T16:00:20.703Z,47.01
2024-01-15T16:02:47.106Z,47.43
2024-01-15T16:05:13.821Z,47.55
2024-01-15T16:07:40.305Z,45.89
2024-01-15T16:10:06.762Z,45.46
2024-01-15T16:12:33.197Z,47.89
2024-01-15T16:14:59.680Z,48.23
2024-01-15T16:23:15.709Z,49.15
2024-01-15T16:23:29.411Z,48.88
2024-01-15T16:23:45.873Z,50.11
2024-01-15T16:25:45.814Z,49.57
2024-01-15T16:28:12.511Z,49.90
2024-01-15T16:30:45.258Z,49.48
2024-01-15T16:33:14.036Z,47.97
2024-01-15T16:35:40.612Z,48.88
2024-01-15T16:38:07.192Z,48.72
2024-01-15T16:40:33.627Z,49.27
2024-01-15T16:43:00.076Z,48.34
2024-01-15T16:45:26.470Z,47.73
2024-01-15T16:47:52.940Z,47.01
2024-01-15T16:50:19.403Z,49.90
2024-01-15T16:52:45.782Z,51.33
2024-01-15T16:55:12.160Z,52.17
2024-01-15T16:57:38.868Z,51.82
2024-01-15T17:00:05.252Z,51.76
2024-01-15T17:02:31.684Z,52.31
2024-01-15T17:04:58.213Z,53.24
2024-01-15T17:07:24.631Z,53.23
2024-01-15T17:09:51.066Z,53.59
2024-01-15T17:12:17.456Z,53.25
2024-01-15T17:14:43.853Z,52.99
2024-01-15T17:17:10.319Z,52.55
2024-01-15T17:19:36.719Z,52.18
2024-01-15T17:22:03.091Z,51.42
2024-01-15T17:24:29.449Z,49.90
2024-01-15T17:26:55.822Z,50.33
2024-01-15T17:29:22.221Z,50.10
2024-01-15T17:31:48.593Z,50.92
2024-01-15T17:34:14.988Z,51.41
2024-01-15T17:36:41.405Z,51.44
2024-01-15T17:39:07.776Z,49.97
2024-01-15T17:41:34.540Z,49.34
2024-01-15T17:44:01.240Z,51.30
2024-01-15T17:46:29.096Z,50.55
2024-01-15T17:48:56.315Z,49.19
2024-01-15T17:51:22.751Z,48.55
2024-01-15T17:53:49.311Z,49.78
2024-01-15T17:56:15.763Z,49.61
2024-01-15T17:58:42.155Z,49.29
2024-01-15T18:01:08.555Z,50.14
2024-01-15T18:03:34.964Z,49.07
2024-01-15T18:06:01.586Z,49.28
2024-01-15T18:08:28.171Z,49.98
2024-01-15T18:10:54.563Z,49.50
2024-01-15T18:13:20.941Z,50.05
2024-01-15T18:15:47.318Z,49.32
2024-01-15T18:18:13.758Z,49.10
2024-01-15T18:20:40.243Z,48.57
2024-01-15T18:23:06.683Z,49.38
2024-01-15T18:25:33.090Z,47.33
2024-01-15T18:27:59.488Z,48.05
2024-01-15T18:30:25.866Z,48.29
2024-01-15T18:32:52.407Z,49.75
2024-01-15T18:35:18.959Z,48.50
2024-01-15T18:37:45.424Z,48.08
2024-01-15T18:40:11.825Z,48.91
2024-01-15T18:42:38.205Z,49.41
2024-01-15T18:45:04.718Z,49.80
2024-01-15T18:47:31.166Z,50.38
2024-01-15T18:49:57.611Z,50.91
2024-01-15T18:52:23.985Z,51.74
2024-01-15T18:54:50.360Z,52.01
2024-01-15T18:57:16.736Z,53.19
2024-01-15T18:59:43.207Z,54.13
2024-01-15T19:02:09.687Z,55.19
2024-01-15T19:04:36.120Z,54.69
2024-01-15T19:07:02.541Z,54.39
2024-01-15T19:09:28.945Z,54.04
2024-01-15T19:11:55.316Z,53.69
2024-01-15T19:14:21.739Z,53.54
2024-01-15T19:16:48.144Z,53.54
2024-01-15T19:19:14.657Z,53.22
2024-01-15T19:21:41.062Z,53.14
2024-01-15T19:24:07.434Z,52.78
2024-01-15T19:26:33.941Z,51.82
2024-01-15T19:29:00.404Z,52.21
2024-01-15T19:31:26.899Z,53.08
2024-01-15T19:33:53.366Z,52.36
2024-01-15T19:36:19.776Z,52.90
2024-01-15T19:38:46.144Z,53.24
2024-01-15T19:41:12.531Z,52.23
2024-01-15T19:43:38.915Z,52.67
2024-01-15T19:46:05.278Z,52.44
2024-01-15T19:48:31.687Z,52.17
2024-01-15T19:50:58.154Z,52.93
2024-01-15T19:53:24.582Z,52.80
2024-01-15T19:55:50.975Z,53.01
2024-01-15T19:58:17.362Z,52.88
2024-01-15T20:00:43.782Z,52.83
2024-01-15T20:03:10.212Z,52.95
2024-01-15T20:05:36.672Z,53.45
2024-01-15T20:08:03.121Z,53.55
2024-01-15T20:10:29.499Z,52.40
2024-01-15T20:12:55.893Z,52.81
2024-01-15T20:15:22.291Z,53.26
2024-01-15T20:17:49.003Z,52.92
2024-01-15T20:20:15.527Z,52.53
2024-01-15T20:22:41.934Z,53.36
2024-01-15T20:25:08.304Z,53.03
2024-01-15T20:27:34.680Z,54.30
2024-01-15T20:30:01.065Z,53.82
2024-01-15T20:32:27.549Z,54.26
2024-01-15T20:34:54.008Z,54.89
2024-01-15T20:37:20.409Z,54.42
2024-01-15T20:39:46.794Z,53.90
2024-01-15T20:42:13.176Z,52.67
2024-01-15T20:44:39.614Z,53.52
2024-01-15T20:47:06.050Z,54.29
2024-01-15T20:49:32.478Z,54.34
2024-01-15T20:51:58.858Z,54.90
2024-01-15T20:54:25.253Z,54.60
2024-01-15T20:56:51.652Z,55.39
2024-01-15T20:59:18.153Z,55.97
2024-01-15T21:01:44.525Z,56.02
2024-01-15T21:04:10.897Z,56.67
2024-01-15T21:06:39.059Z,56.60
2024-01-15T21:09:05.672Z,57.09
2024-01-15T21:11:32.092Z,56.20
2024-01-15T21:13:58.512Z,57.23
2024-01-15T21:16:24.891Z,57.17
2024-01-15T21:18:51.426Z,57.25
2024-01-15T21:21:17.865Z,56.88
2024-01-15T21:23:44.287Z,57.31
2024-01-15T21:26:10.708Z,57.19
2024-01-15T21:28:37.099Z,56.44
2024-01-15T21:31:05.775Z,56.61
2024-01-15T21:33:33.644Z,55.37
2024-01-15T21:36:00.210Z,55.09
2024-01-15T21:38:26.600Z,54.89
2024-01-15T21:40:53.011Z,55.07
2024-01-15T21:43:19.405Z,54.73
2024-01-15T21:45:45.774Z,54.03
2024-01-15T21:48:12.306Z,54.83
2024-01-15T21:50:38.836Z,54.46
2024-01-15T21:53:05.293Z,54.25
2024-01-15T21:55:31.671Z,53.79
2024-01-15T21:57:58.048Z,53.64
2024-01-15T22:00:24.444Z,53.62
2024-01-15T22:02:50.923Z,53.23
2024-01-15T22:05:17.481Z,53.17
2024-01-15T22:07:43.898Z,53.30
2024-01-15T22:10:10.375Z,52.89
2024-01-15T22:12:36.844Z,53.48
2024-01-15T22:15:03.238Z,53.57
2024-01-15T22:17:29.666Z,53.51
2024-01-15T22:19:56.084Z,53.77
2024-01-15T22:22:22.454Z,53.75
2024-01-15T22:24:48.860Z,53.46
2024-01-15T22:27:15.215Z,53.23
2024-01-15T22:29:41.670Z,53.03
2024-01-15T22:32:08.197Z,53.63
2024-01-15T22:34:34.766Z,53.81
2024-01-15T22:37:01.162Z,53.07
2024-01-15T22:39:27.528Z,53.43
2024-01-15T22:41:53.895Z,53.40
2024-01-15T22:44:20.344Z,53.52
2024-01-15T22:46:46.744Z,53.86
2024-01-15T22:49:13.171Z,51.79
2024-01-15T22:51:39.584Z,52.87
2024-01-15T22:54:05.937Z,53.43
2024-01-15T22:56:32.358Z,53.58
2024-01-15T22:58:58.768Z,53.21
2024-01-15T23:01:25.149Z,53.27
2024-01-15T23:03:51.606Z,54.26
2024-01-15T23:06:18.039Z,54.79
2024-01-15T23:08:44.574Z,54.82
2024-01-15T23:11:11.001Z,54.33
2024-01-15T23:13:37.405Z,54.24
2024-01-15T23:16:03.781Z,54.86
2024-01-15T23:18:30.280Z,54.36
2024-01-15T23:20:56.759Z,54.54
2024-01-15T23:23:23.182Z,54.59
2024-01-15T23:25:49.599Z,54.73
2024-01-15T23:28:16.010Z,54.52
2024-01-15T23:30:42.434Z,52.82
2024-01-15T23:33:09.023Z,53.87
2024-01-15T23:35:35.633Z,52.92
2024-01-15T23:38:02.089Z,53.21
2024-01-15T23:40:28.487Z,50.99
2024-01-15T23:42:54.843Z,51.90
2024-01-15T23:45:21.210Z,51.53
2024-01-15T23:47:47.747Z,51.16
2024-01-15T23:50:14.285Z,50.66
2024-01-15T23:52:40.693Z,50.76
2024-01-15T23:55:07.130Z,51.38
2024-01-15T23:57:33.515Z,51.68
2024-01-15T23:59:59.922Z,52.23
